createdAt,value
2023-12-22T00:01:06.402Z,3.70
2023-12-22T00:06:09.964Z,7.13
2023-12-22T00:11:13.141Z,6.10
2023-12-22T00:16:17.919Z,3.93
2023-12-22T00:21:21.016Z,3.63
2023-12-22T00:26:24.543Z,7.30
2023-12-22T00:31:29.013Z,4.17
2023-12-22T00:36:32.189Z,4.17
2023-12-22T00:41:35.344Z,2.77
2023-12-22T00:46:40.016Z,4.27
2023-12-22T00:51:43.330Z,2.60
2023-12-22T00:56:46.444Z,3.07
2023-12-22T01:01:51.187Z,3.90
2023-12-22T01:06:54.810Z,4.27
2023-12-22T01:11:57.984Z,2.60
2023-12-22T01:17:02.727Z,3.20
2023-12-22T01:22:05.950Z,4.00
2023-12-22T01:27:09.180Z,2.80
2023-12-22T01:32:14.125Z,1.90
2023-12-22T01:37:17.794Z,2.87
2023-12-22T01:42:21.183Z,1.67
2023-12-22T01:47:26.164Z,3.23
2023-12-22T01:52:29.521Z,5.10
2023-12-22T01:57:32.848Z,2.20
2023-12-22T02:02:39.720Z,2.73
2023-12-22T02:07:43.709Z,2.47
2023-12-22T02:12:47.233Z,2.20
2023-12-22T02:17:59.451Z,2.30
2023-12-22T02:23:04.184Z,1.97
2023-12-22T02:28:11.889Z,1.90
2023-12-22T02:33:18.278Z,1.50
2023-12-22T02:38:23.688Z,1.93
2023-12-22T02:43:27.218Z,2.80
2023-12-22T02:48:30.516Z,1.67
2023-12-22T02:53:35.246Z,2.73
2023-12-22T02:58:38.423Z,0.93
2023-12-22T03:03:42.048Z,2.90
2023-12-22T03:08:46.498Z,2.03
2023-12-22T03:13:50.025Z,0.87
2023-12-22T03:18:53.191Z,1.43
2023-12-22T03:24:52.389Z,1.77
2023-12-22T03:29:56.842Z,1.37
2023-12-22T03:35:00.004Z,2.50
2023-12-22T03:40:03.758Z,1.63
2023-12-22T03:45:09.364Z,2.47
2023-12-22T03:50:13.103Z,3.33
2023-12-22T03:55:16.445Z,3.03
2023-12-22T04:00:21.801Z,2.93
2023-12-22T04:05:25.299Z,3.27
2023-12-22T04:10:28.875Z,3.00
2023-12-22T04:15:33.596Z,0.90
2023-12-22T04:20:37.081Z,1.40
2023-12-22T04:25:40.320Z,0.87
2023-12-22T04:30:44.978Z,1.37
2023-12-22T04:35:48.159Z,0.60
2023-12-22T04:40:51.390Z,1.03
2023-12-22T04:45:55.932Z,1.53
2023-12-22T04:50:59.053Z,1.30
2023-12-22T04:56:02.337Z,2.23
2023-12-22T05:01:06.881Z,1.73
2023-12-22T05:06:10.481Z,1.67
2023-12-22T05:11:13.723Z,1.83
2023-12-22T05:16:18.255Z,1.53
2023-12-22T05:21:22.422Z,1.50
2023-12-22T05:26:26.277Z,1.10
2023-12-22T05:31:32.557Z,2.27
2023-12-22T05:36:35.893Z,1.30
2023-12-22T05:41:39.349Z,10.67
2023-12-22T05:46:44.244Z,8.33
2023-12-22T05:51:48.119Z,8.90
2023-12-22T05:56:54.675Z,9.10
2023-12-22T06:02:01.473Z,8.27
2023-12-22T06:07:05.709Z,5.83
2023-12-22T06:12:12.852Z,2.77
2023-12-22T06:17:18.096Z,2.10
2023-12-22T06:22:22.561Z,2.57
2023-12-22T06:27:26.299Z,2.97
2023-12-22T06:32:30.847Z,4.00
2023-12-22T06:37:34.056Z,3.93
2023-12-22T06:42:37.509Z,4.57
2023-12-22T06:47:42.356Z,5.93
2023-12-22T06:52:45.575Z,4.23
2023-12-22T06:57:49.175Z,6.73
2023-12-22T07:02:54.091Z,4.47
2023-12-22T07:07:57.219Z,9.03
2023-12-22T07:13:00.477Z,9.20
2023-12-22T07:18:06.286Z,11.53
2023-12-22T07:23:12.418Z,13.30
2023-12-22T07:28:17.514Z,11.73
2023-12-22T07:33:22.405Z,10.63
2023-12-22T07:38:27.072Z,8.40
2023-12-22T07:43:31.550Z,8.77
2023-12-22T07:48:36.167Z,11.47
2023-12-22T07:53:39.677Z,10.97
2023-12-22T07:58:42.894Z,11.60
2023-12-22T08:03:47.847Z,8.07
2023-12-22T08:08:51.059Z,8.53
2023-12-22T08:13:55.277Z,6.43
2023-12-22T08:18:59.787Z,5.57
2023-12-22T08:24:03.105Z,6.60
2023-12-22T08:29:06.304Z,7.47
2023-12-22T08:34:10.860Z,9.43
2023-12-22T08:39:15.136Z,9.63
2023-12-22T08:44:18.841Z,9.77
2023-12-22T08:49:23.666Z,6.07
2023-12-22T08:54:27.484Z,8.00
2023-12-22T08:59:30.969Z,4.43
2023-12-22T09:04:35.980Z,6.33
2023-12-22T09:09:39.409Z,8.43
2023-12-22T09:14:42.605Z,5.00
2023-12-22T09:19:47.493Z,5.50
2023-12-22T09:24:50.921Z,5.93
2023-12-22T09:29:54.066Z,5.47
2023-12-22T09:35:00.404Z,4.03
2023-12-22T09:40:03.688Z,4.53
2023-12-22T09:45:10.179Z,3.77
2023-12-22T09:50:16.255Z,4.47
2023-12-22T09:55:21.174Z,5.30
2023-12-22T10:00:25.919Z,4.33
2023-12-22T10:05:31.817Z,4.70
2023-12-22T10:10:35.250Z,7.77
2023-12-22T10:15:42.236Z,5.67
2023-12-22T10:20:47.851Z,8.20
2023-12-22T10:25:52.694Z,9.60
2023-12-22T10:30:57.112Z,5.83
2023-12-22T10:36:01.975Z,7.57
2023-12-22T10:41:06.221Z,10.17
2023-12-22T10:46:12.058Z,7.50
2023-12-22T10:51:17.820Z,8.27
2023-12-22T10:56:22.580Z,9.20
2023-12-22T11:01:28.158Z,8.40
2023-12-22T11:06:36.678Z,8.43
2023-12-22T11:11:41.092Z,11.07
2023-12-22T11:16:48.458Z,6.80
2023-12-22T11:21:54.681Z,9.93
2023-12-22T11:27:00.661Z,9.67
2023-12-22T11:32:07.677Z,8.20
2023-12-22T11:37:13.710Z,10.13
2023-12-22T11:42:20.607Z,5.23
2023-12-22T11:47:25.380Z,6.20
2023-12-22T11:52:30.273Z,6.97
2023-12-22T11:57:39.565Z,6.70
2023-12-22T12:02:43.680Z,6.67
2023-12-22T12:07:50.890Z,5.27
2023-12-22T12:13:06.666Z,4.83
2023-12-22T12:18:10.989Z,5.20
2023-12-22T12:23:17.284Z,4.73
2023-12-22T12:28:27.883Z,3.03
2023-12-22T12:33:32.133Z,3.00
2023-12-22T12:38:45.420Z,2.33
2023-12-22T12:43:50.115Z,2.93
2023-12-22T12:49:05.991Z,4.87
2023-12-22T12:54:11.275Z,1.70
2023-12-22T12:59:16.124Z,1.50
2023-12-22T13:04:19.941Z,2.13
2023-12-22T13:09:34.389Z,1.20
2023-12-22T13:14:37.785Z,3.33
2023-12-22T13:19:41.118Z,2.00
2023-12-22T13:24:57.420Z,2.20
2023-12-22T13:30:00.532Z,1.77
2023-12-22T13:35:04.846Z,3.17
2023-12-22T13:40:12.477Z,1.53
2023-12-22T13:45:15.967Z,1.30
2023-12-22T13:50:20.171Z,1.23
2023-12-22T13:55:25.346Z,2.07
2023-12-22T14:00:30.396Z,2.03
2023-12-22T14:05:35.696Z,1.27
2023-12-22T14:10:47.020Z,1.50
2023-12-22T14:15:50.926Z,2.10
2023-12-22T14:20:54.120Z,1.13
2023-12-22T14:25:59.555Z,3.30
2023-12-22T14:31:03.342Z,1.97
2023-12-22T14:36:07.018Z,1.40
2023-12-22T14:41:12.744Z,1.83
2023-12-22T14:46:16.097Z,2.67
2023-12-22T14:51:20.236Z,1.63
2023-12-22T14:56:24.837Z,1.57
2023-12-22T15:01:28.546Z,2.47
2023-12-22T15:06:31.899Z,1.00
2023-12-22T15:11:36.535Z,1.57
2023-12-22T15:16:45.716Z,1.63
2023-12-22T15:21:49.007Z,1.83
2023-12-22T15:26:53.633Z,1.70
2023-12-22T15:32:01.299Z,2.03
2023-12-22T15:37:04.720Z,2.17
2023-12-22T15:42:11.114Z,2.30
2023-12-22T15:47:15.246Z,1.63
2023-12-22T15:52:18.502Z,1.57
2023-12-22T15:57:23.083Z,2.67
2023-12-22T16:02:26.628Z,2.27
2023-12-22T16:07:30.612Z,2.50
2023-12-22T16:12:36.627Z,2.10
2023-12-22T16:17:39.841Z,3.27
2023-12-22T16:22:43.733Z,5.33
2023-12-22T16:27:49.036Z,2.83
2023-12-22T16:32:52.730Z,4.00
2023-12-22T16:37:56.544Z,2.07
2023-12-22T16:43:01.305Z,4.90
2023-12-22T16:48:05.100Z,3.47
2023-12-22T16:53:08.634Z,5.17
2023-12-22T16:58:13.822Z,3.87
2023-12-22T17:03:18.093Z,3.13
2023-12-22T17:08:21.593Z,4.07
2023-12-22T17:13:26.212Z,2.00
2023-12-22T17:18:30.785Z,2.30
2023-12-22T17:23:34.330Z,2.23
2023-12-22T17:28:38.961Z,3.57
2023-12-22T17:33:42.225Z,2.27
2023-12-22T17:38:45.405Z,3.03
2023-12-22T17:43:50.121Z,4.60
2023-12-22T17:48:53.773Z,3.13
2023-12-22T17:53:56.992Z,2.30
2023-12-22T17:59:02.258Z,3.03
2023-12-22T18:04:05.514Z,2.30
2023-12-22T18:09:08.905Z,4.57
2023-12-22T18:14:14.242Z,4.50
2023-12-22T18:19:18.207Z,3.33
2023-12-22T18:24:21.586Z,4.00
2023-12-22T18:29:26.303Z,4.10
2023-12-22T18:34:29.617Z,3.17
2023-12-22T18:39:33.794Z,4.33
2023-12-22T18:44:38.648Z,4.97
2023-12-22T18:49:41.959Z,3.27
2023-12-22T18:54:45.259Z,4.20
2023-12-22T18:59:55.519Z,5.50
2023-12-22T19:04:59.286Z,3.47
2023-12-22T19:10:02.576Z,3.10
2023-12-22T19:15:08.925Z,2.67
2023-12-22T19:20:12.945Z,2.40
2023-12-22T19:25:16.199Z,4.07
2023-12-22T19:30:20.831Z,2.40
2023-12-22T19:35:24.161Z,2.53
2023-12-22T19:40:27.322Z,2.23
2023-12-22T19:45:33.484Z,3.43
2023-12-22T19:50:37.116Z,2.73
2023-12-22T19:55:40.666Z,3.53
2023-12-22T20:00:47.179Z,4.70
2023-12-22T20:05:50.850Z,3.50
2023-12-22T20:10:55.059Z,5.53
2023-12-22T20:15:59.532Z,4.03
2023-12-22T20:21:03.523Z,4.13
2023-12-22T20:26:06.693Z,4.30
2023-12-22T20:31:11.155Z,3.27
2023-12-22T20:36:15.158Z,3.20
2023-12-22T20:41:19.235Z,3.87
2023-12-22T20:46:23.676Z,2.07
2023-12-22T20:51:26.843Z,3.20
2023-12-22T20:56:30.569Z,3.23
2023-12-22T21:01:35.154Z,3.87
2023-12-22T21:06:38.458Z,4.73
2023-12-22T21:11:41.689Z,4.37
2023-12-22T21:16:46.875Z,6.63
2023-12-22T21:21:50.057Z,4.13
2023-12-22T21:26:53.305Z,3.23
2023-12-22T21:32:00.067Z,3.27
2023-12-22T21:37:03.647Z,2.43
2023-12-22T21:42:07.025Z,3.97
2023-12-22T21:47:11.957Z,4.87
2023-12-22T21:52:16.228Z,3.43
2023-12-22T21:57:19.784Z,1.60
2023-12-22T22:02:24.259Z,1.63
2023-12-22T22:07:27.477Z,1.23
2023-12-22T22:12:30.560Z,1.10
2023-12-22T22:17:35.335Z,0.60
2023-12-22T22:22:39.213Z,1.13
2023-12-22T22:27:42.829Z,2.70
2023-12-22T22:32:47.451Z,3.10
2023-12-22T22:37:51.289Z,3.50
2023-12-22T22:42:54.570Z,2.00
2023-12-22T22:47:59.494Z,3.00
2023-12-22T22:53:02.705Z,2.20
2023-12-22T22:58:06.642Z,1.70
2023-12-22T23:03:11.135Z,3.67
2023-12-22T23:08:14.447Z,1.77
2023-12-22T23:13:17.623Z,1.53
2023-12-22T23:18:22.509Z,1.87
2023-12-22T23:23:25.951Z,0.70
2023-12-22T23:28:29.734Z,0.80
2023-12-22T23:33:34.756Z,0.93
2023-12-22T23:38:39.199Z,1.80
2023-12-22T23:43:42.937Z,0.70
2023-12-22T23:48:48.069Z,0.80
2023-12-22T23:53:51.352Z,0.53
2023-12-22T23:58:54.531Z,3.57
